KBQK/BQK METAR and TAF weather

Enter ICAO airport designator
Station Type Date Time Source
KBQK METAR 2020/08/11 19:35 UTC NOAA

KBQK 111935Z AUTO 22007KT 10SM CLR 33/24 A2997 RMK AO2 LTG DSNT SE AND SW T03260242


Station Type Date Time Source
KBQK Decoded METAR 2020/08/11 19:35 UTC NOAA

Brunswick / Glynco, GA, United States (KBQK) 31-15N 081-28W
Aug 11, 2020 - 03:35 PM EDT / 2020.08.11 1935 UTC
Wind: from the SW (220 degrees) at 8 MPH (7 KT):0
Visibility: 10 mile(s):0
Sky conditions: clear
Weather: Lightning observed
Temperature: 90.7 F (32.6 C)
Heat index: 102.0 F (38.9 C):1
Dew Point: 75.6 F (24.2 C)
Relative Humidity: 61%
Pressure (altimeter): 29.97 in. Hg (1014 hPa)
ob: KBQK 111935Z AUTO 22007KT 10SM CLR 33/24 A2997 RMK AO2 LTG DSNT SE AND SW T03260242
cycle: 19

Station Type Date Time Source
KBQK TAF UTC NOAA

Error!

Example: see airport list